Time;durP1;ratioP1;P1;durP2;ratioP2;P2;SDS_P1;SDS_P2;PMS_P1;PMS_P2;Temp;Humidity;BMP_temperature;BMP_pressure;BME280_temperature;BME280_humidity;BME280_pressure;Samples;Min_cycle;Max_cycle;Signal;HPM_P1;HPM_P2
2021/04/06 00:01:52;;;;;;;0.30;0.30;;;;;;;;;;5064801;28;20341;-71
2021/04/06 00:04:21;;;;;;;0.30;0.30;;;;;;;;;;5064341;28;20215;-70
2021/04/06 00:06:49;;;;;;;0.30;0.30;;;;;;;;;;5063874;28;20211;-70
2021/04/06 00:09:16;;;;;;;0.30;0.30;;;;;;;;;;5064212;28;20262;-70
2021/04/06 00:11:42;;;;;;;0.30;0.30;;;;;;;;;;5064248;28;20401;-70
2021/04/06 00:14:09;;;;;;;0.30;0.30;;;;;;;;;;5063531;28;20250;-71
2021/04/06 00:16:35;;;;;;;0.30;0.30;;;;;;;;;;5061208;28;20204;-71
2021/04/06 00:19:02;;;;;;;0.30;0.30;;;;;;;;;;5061739;28;20508;-72
2021/04/06 00:21:29;;;;;;;0.30;0.30;;;;;;;;;;5061785;28;20219;-71
2021/04/06 00:23:55;;;;;;;0.30;0.30;;;;;;;;;;5064012;28;20306;-71
2021/04/06 00:26:21;;;;;;;0.30;0.30;;;;;;;;;;5062113;28;20494;-70
2021/04/06 00:28:48;;;;;;;0.30;0.30;;;;;;;;;;5063899;28;20206;-71
2021/04/06 00:31:13;;;;;;;0.30;0.30;;;;;;;;;;5064202;28;20234;-70
2021/04/06 00:33:40;;;;;;;0.30;0.30;;;;;;;;;;5063040;28;20204;-71
2021/04/06 00:36:06;;;;;;;0.30;0.30;;;;;;;;;;5059228;28;20196;-71
2021/04/06 00:38:39;;;;;;;0.30;0.30;;;;;;;;;;5064252;28;20200;-71
2021/04/06 00:41:06;;;;;;;0.30;0.30;;;;;;;;;;5056785;28;20212;-72
2021/04/06 00:43:32;;;;;;;0.30;0.30;;;;;;;;;;5063882;28;20408;-72
2021/04/06 00:45:59;;;;;;;0.30;0.30;;;;;;;;;;5063307;28;20263;-72
2021/04/06 00:48:25;;;;;;;0.30;0.30;;;;;;;;;;5066758;28;20541;-71
2021/04/06 00:50:59;;;;;;;0.30;0.30;;;;;;;;;;5068086;28;20239;-71
2021/04/06 00:53:40;;;;;;;0.30;0.30;;;;;;;;;;5067841;28;20196;-71
2021/04/06 00:56:12;;;;;;;0.30;0.30;;;;;;;;;;5068039;28;20565;-71
2021/04/06 00:58:42;;;;;;;0.30;0.30;;;;;;;;;;5068064;28;20225;-72
2021/04/06 01:01:09;;;;;;;0.30;0.30;;;;;;;;;;5067763;28;20207;-71
2021/04/06 01:03:37;;;;;;;0.30;0.30;;;;;;;;;;5067796;28;20245;-73
2021/04/06 01:06:06;;;;;;;0.30;0.30;;;;;;;;;;5065766;28;20208;-71
2021/04/06 01:08:32;;;;;;;0.30;0.30;;;;;;;;;;5062293;28;20227;-70
2021/04/06 01:10:59;;;;;;;0.30;0.30;;;;;;;;;;5053001;28;20278;-71
2021/04/06 01:13:26;;;;;;;0.30;0.30;;;;;;;;;;5061841;28;20208;-72
2021/04/06 01:15:52;;;;;;;0.30;0.30;;;;;;;;;;5067394;28;20215;-72
2021/04/06 01:18:18;;;;;;;0.30;0.30;;;;;;;;;;5062291;28;20504;-70
2021/04/06 01:20:44;;;;;;;0.30;0.30;;;;;;;;;;5058686;28;20504;-71
2021/04/06 01:23:11;;;;;;;0.30;0.30;;;;;;;;;;5064192;28;20243;-71
2021/04/06 01:25:42;;;;;;;0.30;0.30;;;;;;;;;;5066538;28;20207;-70
2021/04/06 01:28:09;;;;;;;0.30;0.30;;;;;;;;;;5065383;28;20203;-70
2021/04/06 01:30:45;;;;;;;0.40;0.40;;;;;;;;;;5048462;28;20546;-70
2021/04/06 01:33:11;;;;;;;0.30;0.30;;;;;;;;;;5058401;28;20230;-70
2021/04/06 01:35:37;;;;;;;0.30;0.30;;;;;;;;;;5066790;28;20211;-70
2021/04/06 01:38:03;;;;;;;0.30;0.30;;;;;;;;;;5066747;28;20552;-71
2021/04/06 01:40:30;;;;;;;0.33;0.33;;;;;;;;;;5066629;28;20200;-70
2021/04/06 01:42:56;;;;;;;0.30;0.30;;;;;;;;;;5066790;28;20525;-70
2021/04/06 01:45:22;;;;;;;0.40;0.40;;;;;;;;;;5056537;28;20402;-71
2021/04/06 01:47:48;;;;;;;0.30;0.30;;;;;;;;;;5064605;28;20495;-71
2021/04/06 01:50:14;;;;;;;0.30;0.30;;;;;;;;;;5058436;28;20235;-71
2021/04/06 01:52:40;;;;;;;0.30;0.30;;;;;;;;;;5059976;28;20207;-71
2021/04/06 01:55:12;;;;;;;0.30;0.30;;;;;;;;;;5060755;28;20204;-71
2021/04/06 01:57:42;;;;;;;0.30;0.30;;;;;;;;;;5064730;28;20214;-71
2021/04/06 02:00:17;;;;;;;0.30;0.30;;;;;;;;;;5061495;28;20227;-71
2021/04/06 02:02:43;;;;;;;0.30;0.30;;;;;;;;;;5062667;28;20462;-71
2021/04/06 02:05:11;;;;;;;0.30;0.30;;;;;;;;;;5066069;28;20448;-72
2021/04/06 02:07:40;;;;;;;0.30;0.30;;;;;;;;;;5055478;28;20223;-71
2021/04/06 02:10:07;;;;;;;0.30;0.30;;;;;;;;;;5066329;28;20220;-72
2021/04/06 02:12:37;;;;;;;0.30;0.30;;;;;;;;;;5066864;28;20261;-71
2021/04/06 02:15:08;;;;;;;0.30;0.30;;;;;;;;;;5055712;28;20234;-71
2021/04/06 02:17:44;;;;;;;0.30;0.30;;;;;;;;;;5066069;28;20365;-70
2021/04/06 02:20:17;;;;;;;0.30;0.30;;;;;;;;;;5063336;28;20192;-71
2021/04/06 02:22:52;;;;;;;0.30;0.30;;;;;;;;;;5065616;28;20235;-71
2021/04/06 02:25:18;;;;;;;0.30;0.30;;;;;;;;;;5065661;28;20420;-71
2021/04/06 02:27:43;;;;;;;0.37;0.37;;;;;;;;;;5057898;28;20204;-71
2021/04/06 02:30:10;;;;;;;0.30;0.30;;;;;;;;;;5065213;28;20219;-70
2021/04/06 02:32:36;;;;;;;0.30;0.30;;;;;;;;;;5065421;28;20336;-70
2021/04/06 02:35:04;;;;;;;0.30;0.30;;;;;;;;;;5065512;28;20475;-72
2021/04/06 02:37:31;;;;;;;0.30;0.30;;;;;;;;;;5056933;28;20207;-70
2021/04/06 02:39:58;;;;;;;0.30;0.30;;;;;;;;;;5065432;28;20383;-70
2021/04/06 02:42:25;;;;;;;0.30;0.30;;;;;;;;;;5064327;28;20200;-71
2021/04/06 02:44:56;;;;;;;0.30;0.30;;;;;;;;;;5065020;28;20279;-70
2021/04/06 02:47:23;;;;;;;0.30;0.30;;;;;;;;;;5059823;28;20203;-70
2021/04/06 02:49:49;;;;;;;0.30;0.30;;;;;;;;;;5053184;28;20216;-70
2021/04/06 02:52:15;;;;;;;0.30;0.30;;;;;;;;;;5060708;28;20214;-71
2021/04/06 02:54:41;;;;;;;0.30;0.30;;;;;;;;;;5060886;28;20200;-71
2021/04/06 02:57:20;;;;;;;0.30;0.30;;;;;;;;;;5048290;28;20204;-71
2021/04/06 02:59:46;;;;;;;0.30;0.30;;;;;;;;;;5052422;28;20208;-71
2021/04/06 03:02:11;;;;;;;0.30;0.30;;;;;;;;;;5045352;28;20414;-70
2021/04/06 03:04:40;;;;;;;0.30;0.30;;;;;;;;;;5054664;28;20227;-70
2021/04/06 03:07:15;;;;;;;0.30;0.30;;;;;;;;;;5049854;28;20211;-70
2021/04/06 03:09:40;;;;;;;0.30;0.30;;;;;;;;;;5054311;28;20556;-71
2021/04/06 03:12:07;;;;;;;0.30;0.30;;;;;;;;;;5064268;28;20208;-70
2021/04/06 03:14:33;;;;;;;0.30;0.30;;;;;;;;;;5056446;28;20204;-70
2021/04/06 03:16:58;;;;;;;0.30;0.30;;;;;;;;;;5063037;28;20394;-70
2021/04/06 03:19:31;;;;;;;0.30;0.30;;;;;;;;;;5064360;28;20200;-70
2021/04/06 03:21:58;;;;;;;0.30;0.30;;;;;;;;;;5064053;28;20283;-72
2021/04/06 03:24:23;;;;;;;0.30;0.30;;;;;;;;;;5071187;28;20212;-71
2021/04/06 03:26:49;;;;;;;0.30;0.30;;;;;;;;;;5070352;28;20258;-70
2021/04/06 03:29:17;;;;;;;0.30;0.30;;;;;;;;;;5062832;28;20231;-71
2021/04/06 03:31:43;;;;;;;0.30;0.30;;;;;;;;;;5064944;28;20207;-70
2021/04/06 03:34:09;;;;;;;0.30;0.30;;;;;;;;;;5069417;28;20250;-70
2021/04/06 03:36:35;;;;;;;0.30;0.30;;;;;;;;;;5066836;28;20214;-70
2021/04/06 03:39:03;;;;;;;0.30;0.30;;;;;;;;;;5065321;28;20511;-70
2021/04/06 03:41:30;;;;;;;0.33;0.33;;;;;;;;;;5064363;28;20211;-70
2021/04/06 03:44:02;;;;;;;0.40;0.40;;;;;;;;;;5076828;28;20211;-70
2021/04/06 03:46:28;;;;;;;0.30;0.30;;;;;;;;;;5069288;28;20201;-70
2021/04/06 03:49:10;;;;;;;0.30;0.30;;;;;;;;;;5084041;28;20199;-71
2021/04/06 03:51:36;;;;;;;0.30;0.30;;;;;;;;;;5063365;28;20203;-70
2021/04/06 03:54:03;;;;;;;0.30;0.30;;;;;;;;;;5059929;28;20473;-70
2021/04/06 03:56:30;;;;;;;0.30;0.30;;;;;;;;;;5064427;28;20254;-70
2021/04/06 03:58:57;;;;;;;0.30;0.30;;;;;;;;;;5058118;28;20214;-70
2021/04/06 04:01:23;;;;;;;0.30;0.30;;;;;;;;;;5058120;28;20361;-70
2021/04/06 04:03:52;;;;;;;0.30;0.30;;;;;;;;;;5058656;28;20257;-70
2021/04/06 04:06:21;;;;;;;0.30;0.30;;;;;;;;;;5063402;28;20211;-72
2021/04/06 04:08:47;;;;;;;0.30;0.30;;;;;;;;;;5058822;28;20231;-72
2021/04/06 04:11:14;;;;;;;0.30;0.30;;;;;;;;;;5062908;28;20342;-70
2021/04/06 04:13:39;;;;;;;0.30;0.30;;;;;;;;;;5063412;28;20203;-70
2021/04/06 04:16:05;;;;;;;0.30;0.30;;;;;;;;;;5059634;28;20383;-70
2021/04/06 04:18:31;;;;;;;0.30;0.30;;;;;;;;;;5058225;28;20647;-71
2021/04/06 04:20:57;;;;;;;0.30;0.30;;;;;;;;;;5049790;28;20223;-70
2021/04/06 04:23:23;;;;;;;0.30;0.30;;;;;;;;;;5054132;28;20425;-70
2021/04/06 04:25:49;;;;;;;0.30;0.30;;;;;;;;;;5053142;28;20276;-71
2021/04/06 04:28:15;;;;;;;0.30;0.30;;;;;;;;;;5065152;28;20204;-71
2021/04/06 04:30:42;;;;;;;0.37;0.37;;;;;;;;;;5049405;28;20224;-71
2021/04/06 04:33:09;;;;;;;0.30;0.30;;;;;;;;;;5059673;28;20402;-70
2021/04/06 04:35:36;;;;;;;0.37;0.37;;;;;;;;;;5066694;28;20207;-71
2021/04/06 04:38:02;;;;;;;0.30;0.30;;;;;;;;;;5051437;28;20254;-71
2021/04/06 04:40:28;;;;;;;0.30;0.30;;;;;;;;;;5051606;28;20192;-71
2021/04/06 04:42:54;;;;;;;0.30;0.30;;;;;;;;;;5065655;28;20506;-71
2021/04/06 04:45:21;;;;;;;0.33;0.33;;;;;;;;;;5058329;28;20199;-71
2021/04/06 04:47:47;;;;;;;0.30;0.30;;;;;;;;;;5066967;28;20207;-71
2021/04/06 04:50:13;;;;;;;0.30;0.30;;;;;;;;;;5055808;28;20220;-71
2021/04/06 04:52:42;;;;;;;0.33;0.33;;;;;;;;;;5056700;28;20238;-71
2021/04/06 04:55:08;;;;;;;0.30;0.30;;;;;;;;;;5062183;28;20216;-71
2021/04/06 04:57:34;;;;;;;0.30;0.30;;;;;;;;;;5064429;28;20255;-71
2021/04/06 04:59:59;;;;;;;0.30;0.30;;;;;;;;;;5059096;28;20337;-70
2021/04/06 05:02:26;;;;;;;0.30;0.30;;;;;;;;;;5050954;28;20279;-70
2021/04/06 05:04:52;;;;;;;0.30;0.30;;;;;;;;;;5065297;28;20509;-72
2021/04/06 05:07:18;;;;;;;0.30;0.30;;;;;;;;;;5062281;28;20207;-70
2021/04/06 05:09:44;;;;;;;0.30;0.30;;;;;;;;;;5059821;28;20235;-70
2021/04/06 05:12:09;;;;;;;0.30;0.30;;;;;;;;;;5060915;28;20486;-70
2021/04/06 05:14:35;;;;;;;0.30;0.30;;;;;;;;;;5062239;28;20502;-71
2021/04/06 05:17:01;;;;;;;0.30;0.30;;;;;;;;;;5066209;28;20206;-71
2021/04/06 05:19:27;;;;;;;0.60;0.60;;;;;;;;;;5063773;28;20215;-71
2021/04/06 05:21:53;;;;;;;0.30;0.30;;;;;;;;;;5064479;28;20217;-71
2021/04/06 05:24:19;;;;;;;0.30;0.30;;;;;;;;;;5052395;28;20375;-71
2021/04/06 05:26:45;;;;;;;0.40;0.40;;;;;;;;;;5053705;28;20517;-71
2021/04/06 05:29:11;;;;;;;0.30;0.30;;;;;;;;;;5058803;28;20501;-72
2021/04/06 05:31:36;;;;;;;0.30;0.30;;;;;;;;;;5060535;28;20233;-70
2021/04/06 05:34:02;;;;;;;0.30;0.30;;;;;;;;;;5065877;28;20274;-70
2021/04/06 05:36:29;;;;;;;0.30;0.30;;;;;;;;;;5062068;28;20482;-70
2021/04/06 05:38:55;;;;;;;0.30;0.30;;;;;;;;;;5051639;28;20823;-70
2021/04/06 05:41:21;;;;;;;0.30;0.30;;;;;;;;;;5055457;28;20192;-70
2021/04/06 05:43:47;;;;;;;0.30;0.30;;;;;;;;;;5058764;28;20207;-70
2021/04/06 05:46:14;;;;;;;0.30;0.30;;;;;;;;;;5065260;28;20246;-70
2021/04/06 05:48:41;;;;;;;0.30;0.30;;;;;;;;;;5065978;28;20513;-70
2021/04/06 05:51:07;;;;;;;0.30;0.30;;;;;;;;;;5065599;28;20228;-71
2021/04/06 05:53:34;;;;;;;0.30;0.30;;;;;;;;;;5064168;28;20234;-71
2021/04/06 05:56:00;;;;;;;0.30;0.30;;;;;;;;;;5065516;28;20227;-72
2021/04/06 05:58:26;;;;;;;0.30;0.30;;;;;;;;;;5065571;28;20211;-70
2021/04/06 06:00:52;;;;;;;0.30;0.30;;;;;;;;;;5057387;28;20231;-71
2021/04/06 06:03:18;;;;;;;0.30;0.30;;;;;;;;;;5065101;28;20210;-71
2021/04/06 06:05:44;;;;;;;0.30;0.30;;;;;;;;;;5055784;28;20204;-70
2021/04/06 06:08:13;;;;;;;0.30;0.30;;;;;;;;;;5057889;28;20212;-70
2021/04/06 06:10:41;;;;;;;0.30;0.30;;;;;;;;;;5064323;28;20306;-70
2021/04/06 06:13:20;;;;;;;0.30;0.30;;;;;;;;;;5065319;28;20245;-71
2021/04/06 06:16:04;;;;;;;0.30;0.30;;;;;;;;;;5054523;28;20207;-70
2021/04/06 06:18:30;;;;;;;0.30;0.30;;;;;;;;;;5064063;28;20212;-70
2021/04/06 06:20:56;;;;;;;0.30;0.30;;;;;;;;;;5058103;28;20227;-70
2021/04/06 06:23:23;;;;;;;0.30;0.30;;;;;;;;;;5060037;28;22885;-72
2021/04/06 06:26:08;;;;;;;0.30;0.30;;;;;;;;;;5055866;28;20207;-70
2021/04/06 06:28:35;;;;;;;0.30;0.30;;;;;;;;;;5058414;28;20284;-72
2021/04/06 06:31:01;;;;;;;0.30;0.30;;;;;;;;;;5060371;28;20232;-72
2021/04/06 06:33:28;;;;;;;0.30;0.30;;;;;;;;;;5064644;28;20199;-71
2021/04/06 06:35:55;;;;;;;0.30;0.30;;;;;;;;;;5062137;28;20506;-71
2021/04/06 06:38:21;;;;;;;0.30;0.30;;;;;;;;;;5063022;28;20492;-71
2021/04/06 06:40:48;;;;;;;0.30;0.30;;;;;;;;;;5055818;28;20212;-71
2021/04/06 06:43:16;;;;;;;0.20;0.20;;;;;;;;;;5062059;28;20211;-71
2021/04/06 06:45:43;;;;;;;0.30;0.30;;;;;;;;;;5059195;28;20218;-70
2021/04/06 06:48:09;;;;;;;0.20;0.20;;;;;;;;;;5063931;28;20402;-70
2021/04/06 06:50:45;;;;;;;0.20;0.20;;;;;;;;;;5051660;28;20224;-70
2021/04/06 06:53:11;;;;;;;0.20;0.20;;;;;;;;;;5062330;28;20211;-70
2021/04/06 06:55:37;;;;;;;0.40;0.40;;;;;;;;;;5054939;28;20210;-70
2021/04/06 06:58:04;;;;;;;0.20;0.20;;;;;;;;;;5051878;28;20217;-72
2021/04/06 07:00:30;;;;;;;0.20;0.20;;;;;;;;;;5056116;28;20488;-71
2021/04/06 07:02:57;;;;;;;0.20;0.20;;;;;;;;;;5058121;28;20214;-71
2021/04/06 07:05:24;;;;;;;0.20;0.20;;;;;;;;;;5054530;28;20273;-71
2021/04/06 07:08:05;;;;;;;0.20;0.20;;;;;;;;;;5063871;28;20391;-69
2021/04/06 07:10:32;;;;;;;0.17;0.17;;;;;;;;;;5052811;28;20242;-70
2021/04/06 07:13:06;;;;;;;0.20;0.20;;;;;;;;;;5054488;28;20204;-70
2021/04/06 07:15:32;;;;;;;0.20;0.20;;;;;;;;;;5061805;28;20223;-70
2021/04/06 07:18:05;;;;;;;0.20;0.20;;;;;;;;;;5054322;28;20208;-70
2021/04/06 07:20:31;;;;;;;0.20;0.20;;;;;;;;;;5063105;28;20234;-70
2021/04/06 07:22:59;;;;;;;0.13;0.13;;;;;;;;;;5062518;28;20265;-70
2021/04/06 07:25:25;;;;;;;0.13;0.13;;;;;;;;;;5054407;28;20376;-70
2021/04/06 07:27:52;;;;;;;0.20;0.20;;;;;;;;;;5064012;28;20203;-70
2021/04/06 07:30:18;;;;;;;0.13;0.13;;;;;;;;;;5063554;28;20544;-72
2021/04/06 07:32:44;;;;;;;0.10;0.10;;;;;;;;;;5063141;28;20212;-73
2021/04/06 07:35:12;;;;;;;0.10;0.10;;;;;;;;;;5058810;28;20207;-71
2021/04/06 07:37:39;;;;;;;0.10;0.10;;;;;;;;;;5063376;28;20223;-72
2021/04/06 07:40:08;;;;;;;0.20;0.20;;;;;;;;;;5057982;28;20206;-70
2021/04/06 07:42:35;;;;;;;0.10;0.10;;;;;;;;;;5060200;28;20222;-70
2021/04/06 07:45:01;;;;;;;0.10;0.10;;;;;;;;;;5055260;28;20368;-70
2021/04/06 07:47:37;;;;;;;0.10;0.10;;;;;;;;;;5057479;28;20204;-70
2021/04/06 07:50:05;;;;;;;0.10;0.10;;;;;;;;;;5057528;28;20232;-70
2021/04/06 07:52:32;;;;;;;0.10;0.10;;;;;;;;;;5059595;28;20221;-71
2021/04/06 07:54:58;;;;;;;0.10;0.10;;;;;;;;;;5056468;28;20501;-70
2021/04/06 07:57:40;;;;;;;0.10;0.10;;;;;;;;;;5057219;28;20200;-69
2021/04/06 08:00:07;;;;;;;0.10;0.10;;;;;;;;;;5061229;28;20196;-70
2021/04/06 08:02:34;;;;;;;0.10;0.10;;;;;;;;;;5062649;28;20271;-71
2021/04/06 08:05:06;;;;;;;0.10;0.10;;;;;;;;;;5058896;28;20201;-70
2021/04/06 08:07:34;;;;;;;0.10;0.10;;;;;;;;;;5055752;28;20392;-70
2021/04/06 08:10:02;;;;;;;0.10;0.10;;;;;;;;;;5054184;28;20233;-71
2021/04/06 08:12:29;;;;;;;0.20;0.20;;;;;;;;;;5059923;28;20455;-70
2021/04/06 08:14:59;;;;;;;0.17;0.17;;;;;;;;;;5052779;28;20511;-69
2021/04/06 08:17:41;;;;;;;0.17;0.17;;;;;;;;;;5050743;28;20327;-69
2021/04/06 08:20:15;;;;;;;0.10;0.10;;;;;;;;;;5052085;28;20203;-70
2021/04/06 08:22:47;;;;;;;0.10;0.10;;;;;;;;;;5055791;28;20305;-71
2021/04/06 08:25:29;;;;;;;0.20;0.20;;;;;;;;;;5058984;28;20219;-69
2021/04/06 08:27:56;;;;;;;0.20;0.20;;;;;;;;;;5046809;28;20206;-71
2021/04/06 08:30:26;;;;;;;0.20;0.20;;;;;;;;;;5050868;28;20436;-71
2021/04/06 08:33:11;;;;;;;0.20;0.20;;;;;;;;;;5052375;28;20265;-72
2021/04/06 08:35:57;;;;;;;0.20;0.20;;;;;;;;;;5053055;28;20259;-70
2021/04/06 08:38:43;;;;;;;0.20;0.20;;;;;;;;;;5057173;28;20206;-71
2021/04/06 08:41:12;;;;;;;0.27;0.27;;;;;;;;;;5062649;28;20524;-71
2021/04/06 08:43:40;;;;;;;0.20;0.20;;;;;;;;;;5062092;28;20220;-70
2021/04/06 08:46:07;;;;;;;0.20;0.20;;;;;;;;;;5058946;28;20206;-71
2021/04/06 08:48:48;;;;;;;0.20;0.20;;;;;;;;;;5061281;28;20248;-71
2021/04/06 08:51:18;;;;;;;0.20;0.20;;;;;;;;;;5067006;28;20224;-74
2021/04/06 08:53:45;;;;;;;0.20;0.20;;;;;;;;;;5062309;28;20200;-75
2021/04/06 08:56:12;;;;;;;0.20;0.20;;;;;;;;;;5062383;28;20206;-73
2021/04/06 08:58:39;;;;;;;0.20;0.20;;;;;;;;;;5062151;28;20323;-72
2021/04/06 09:01:06;;;;;;;0.20;0.20;;;;;;;;;;5052330;28;20205;-72
2021/04/06 09:03:33;;;;;;;0.20;0.20;;;;;;;;;;5061218;28;20455;-73
2021/04/06 09:06:09;;;;;;;0.20;0.20;;;;;;;;;;5062313;28;22503;-74
2021/04/06 09:08:50;;;;;;;0.20;0.20;;;;;;;;;;5061669;28;20286;-75
2021/04/06 09:11:19;;;;;;;0.20;0.20;;;;;;;;;;5066256;28;20468;-73
2021/04/06 09:13:46;;;;;;;0.20;0.20;;;;;;;;;;5066000;28;20203;-74
2021/04/06 09:16:14;;;;;;;0.23;0.23;;;;;;;;;;5066337;28;20201;-73
2021/04/06 09:18:40;;;;;;;0.20;0.20;;;;;;;;;;5060808;28;20247;-73
2021/04/06 09:21:08;;;;;;;0.20;0.20;;;;;;;;;;5065367;28;20200;-73
2021/04/06 09:23:35;;;;;;;0.20;0.20;;;;;;;;;;5062443;28;20235;-73
2021/04/06 09:26:04;;;;;;;0.20;0.20;;;;;;;;;;5065423;28;20199;-73
2021/04/06 09:28:31;;;;;;;0.20;0.20;;;;;;;;;;5065432;28;20292;-74
2021/04/06 09:30:58;;;;;;;0.20;0.20;;;;;;;;;;5065188;28;20234;-73
2021/04/06 09:33:25;;;;;;;0.20;0.20;;;;;;;;;;5065533;28;20374;-74
2021/04/06 09:35:54;;;;;;;0.20;0.20;;;;;;;;;;5063081;28;20224;-73
2021/04/06 09:38:21;;;;;;;0.20;0.20;;;;;;;;;;5063248;28;20228;-74
2021/04/06 09:40:47;;;;;;;0.20;0.20;;;;;;;;;;5063647;28;20530;-73
2021/04/06 09:43:15;;;;;;;0.20;0.20;;;;;;;;;;5066187;28;20205;-75
2021/04/06 09:45:42;;;;;;;0.20;0.20;;;;;;;;;;5055074;28;20276;-74
2021/04/06 09:48:12;;;;;;;0.20;0.20;;;;;;;;;;5063708;28;20208;-74
2021/04/06 09:50:38;;;;;;;0.20;0.20;;;;;;;;;;5058533;28;20234;-74
2021/04/06 09:53:15;;;;;;;0.20;0.20;;;;;;;;;;5060490;28;20196;-72
2021/04/06 09:55:42;;;;;;;0.20;0.20;;;;;;;;;;5059347;28;20548;-74
2021/04/06 09:58:08;;;;;;;0.20;0.20;;;;;;;;;;5047438;28;20426;-74
2021/04/06 10:00:36;;;;;;;0.20;0.20;;;;;;;;;;5057924;28;20198;-74
2021/04/06 10:03:03;;;;;;;0.20;0.20;;;;;;;;;;5056701;28;20213;-74
2021/04/06 10:05:30;;;;;;;0.20;0.20;;;;;;;;;;5059831;28;20202;-76
2021/04/06 10:07:56;;;;;;;0.20;0.20;;;;;;;;;;5058678;28;20224;-70
2021/04/06 10:10:22;;;;;;;0.20;0.20;;;;;;;;;;5064708;28;20226;-72
2021/04/06 10:12:49;;;;;;;0.20;0.20;;;;;;;;;;5058504;28;20213;-70
2021/04/06 10:15:17;;;;;;;0.20;0.20;;;;;;;;;;5065559;28;20506;-70
2021/04/06 10:17:43;;;;;;;0.20;0.20;;;;;;;;;;5062827;28;20202;-70
2021/04/06 10:20:11;;;;;;;0.20;0.20;;;;;;;;;;5058399;28;20207;-74
2021/04/06 10:22:41;;;;;;;0.20;0.20;;;;;;;;;;5060499;28;20234;-71
2021/04/06 10:25:09;;;;;;;0.20;0.20;;;;;;;;;;5065033;28;20396;-72
2021/04/06 10:27:37;;;;;;;0.20;0.20;;;;;;;;;;5064583;28;20230;-72
2021/04/06 10:30:05;;;;;;;0.20;0.20;;;;;;;;;;5064561;28;20227;-72
2021/04/06 10:32:32;;;;;;;0.50;0.50;;;;;;;;;;5055712;28;20203;-71
2021/04/06 10:35:04;;;;;;;0.10;0.10;;;;;;;;;;5064687;28;20550;-72
2021/04/06 10:37:40;;;;;;;0.20;0.20;;;;;;;;;;5065128;28;20287;-72
2021/04/06 10:40:20;;;;;;;0.20;0.20;;;;;;;;;;5060457;28;20203;-73
2021/04/06 10:42:48;;;;;;;0.20;0.20;;;;;;;;;;5059844;28;20490;-72
2021/04/06 10:45:14;;;;;;;0.20;0.20;;;;;;;;;;5059791;28;20470;-72
2021/04/06 10:47:40;;;;;;;0.20;0.20;;;;;;;;;;5055611;28;20205;-73
2021/04/06 10:50:08;;;;;;;0.20;0.20;;;;;;;;;;5060711;28;20300;-72
2021/04/06 10:52:34;;;;;;;0.20;0.20;;;;;;;;;;5062323;28;20214;-72
2021/04/06 10:55:01;;;;;;;0.20;0.20;;;;;;;;;;5062662;28;20212;-71
2021/04/06 10:57:29;;;;;;;1.03;0.93;;;;;;;;;;5064366;28;20540;-71
2021/04/06 10:59:55;;;;;;;0.10;0.10;;;;;;;;;;5059904;28;20423;-70
2021/04/06 11:02:22;;;;;;;0.10;0.10;;;;;;;;;;5064311;28;20269;-71
2021/04/06 11:04:48;;;;;;;0.20;0.20;;;;;;;;;;5063825;28;20209;-73
2021/04/06 11:07:15;;;;;;;0.10;0.10;;;;;;;;;;5064498;28;20232;-71
2021/04/06 11:09:42;;;;;;;0.10;0.10;;;;;;;;;;5063442;28;20402;-71
2021/04/06 11:12:08;;;;;;;0.10;0.10;;;;;;;;;;5062054;28;20296;-71
2021/04/06 11:14:35;;;;;;;0.10;0.10;;;;;;;;;;5064403;28;20225;-73
2021/04/06 11:17:05;;;;;;;0.10;0.10;;;;;;;;;;5062559;28;20509;-72
2021/04/06 11:19:32;;;;;;;0.10;0.10;;;;;;;;;;5063656;28;20203;-72
2021/04/06 11:22:00;;;;;;;0.10;0.10;;;;;;;;;;5063920;28;20488;-72
2021/04/06 11:24:28;;;;;;;0.10;0.10;;;;;;;;;;5063844;28;20261;-72
2021/04/06 11:26:54;;;;;;;0.10;0.10;;;;;;;;;;5058854;28;20251;-71
2021/04/06 11:29:21;;;;;;;0.10;0.10;;;;;;;;;;5058624;28;20623;-71
2021/04/06 11:31:48;;;;;;;0.10;0.10;;;;;;;;;;5060799;28;20222;-73
2021/04/06 11:34:16;;;;;;;0.10;0.10;;;;;;;;;;5056900;28;20413;-72
2021/04/06 11:36:43;;;;;;;0.10;0.10;;;;;;;;;;5062592;28;20233;-72
2021/04/06 11:39:10;;;;;;;0.10;0.10;;;;;;;;;;5059575;28;20210;-72
2021/04/06 11:41:37;;;;;;;0.43;0.43;;;;;;;;;;5063115;28;20227;-71
2021/04/06 11:44:04;;;;;;;0.10;0.10;;;;;;;;;;5062800;28;20249;-71
2021/04/06 11:46:30;;;;;;;0.10;0.10;;;;;;;;;;5064468;28;20206;-72
2021/04/06 11:48:56;;;;;;;0.10;0.10;;;;;;;;;;5063915;28;20285;-72
2021/04/06 11:51:23;;;;;;;0.10;0.10;;;;;;;;;;5060285;28;20227;-71
2021/04/06 11:53:49;;;;;;;0.57;0.57;;;;;;;;;;5063872;28;20203;-72
2021/04/06 11:56:15;;;;;;;0.10;0.10;;;;;;;;;;5062950;28;20235;-73
2021/04/06 11:58:43;;;;;;;0.10;0.10;;;;;;;;;;5062832;28;20217;-73
2021/04/06 12:01:10;;;;;;;1.17;1.17;;;;;;;;;;5063760;28;20211;-73
2021/04/06 12:03:36;;;;;;;0.20;0.20;;;;;;;;;;5050271;28;20580;-72
2021/04/06 12:06:03;;;;;;;0.20;0.20;;;;;;;;;;5063709;28;20203;-73
2021/04/06 12:08:29;;;;;;;0.17;0.17;;;;;;;;;;5063993;28;20551;-73
2021/04/06 12:10:56;;;;;;;0.10;0.10;;;;;;;;;;5055598;28;20226;-72
2021/04/06 12:13:22;;;;;;;0.10;0.10;;;;;;;;;;5062474;28;20210;-72
2021/04/06 12:15:51;;;;;;;0.10;0.10;;;;;;;;;;5061753;28;20207;-72
2021/04/06 12:18:18;;;;;;;0.10;0.10;;;;;;;;;;5063542;28;20234;-71
2021/04/06 12:20:45;;;;;;;0.10;0.10;;;;;;;;;;5062793;28;20209;-72
2021/04/06 12:23:12;;;;;;;0.10;0.10;;;;;;;;;;5063093;28;20232;-71
2021/04/06 12:25:38;;;;;;;0.10;0.10;;;;;;;;;;5053961;28;20524;-71
2021/04/06 12:28:06;;;;;;;0.10;0.10;;;;;;;;;;5058888;28;20510;-71
2021/04/06 12:30:33;;;;;;;0.10;0.10;;;;;;;;;;5054350;28;20242;-72
2021/04/06 12:33:01;;;;;;;0.20;0.20;;;;;;;;;;5063139;28;20207;-72
2021/04/06 12:35:46;;;;;;;0.10;0.10;;;;;;;;;;5059109;28;20208;-73
2021/04/06 12:38:14;;;;;;;0.10;0.10;;;;;;;;;;5063448;28;20390;-73
2021/04/06 12:40:42;;;;;;;0.10;0.10;;;;;;;;;;5062221;28;20198;-72
2021/04/06 12:43:10;;;;;;;0.10;0.10;;;;;;;;;;5067130;28;20209;-72
2021/04/06 12:45:38;;;;;;;0.10;0.10;;;;;;;;;;5065844;28;20269;-71
2021/04/06 12:48:07;;;;;;;0.10;0.10;;;;;;;;;;5060693;28;20216;-73
2021/04/06 12:50:35;;;;;;;0.10;0.10;;;;;;;;;;5059215;28;20228;-73
2021/04/06 12:53:02;;;;;;;0.10;0.10;;;;;;;;;;5067157;28;20202;-73
2021/04/06 12:55:30;;;;;;;0.10;0.10;;;;;;;;;;5054362;28;20510;-72
2021/04/06 12:57:58;;;;;;;0.10;0.10;;;;;;;;;;5053714;28;20499;-72
2021/04/06 13:00:26;;;;;;;0.10;0.10;;;;;;;;;;5053807;28;20199;-73
2021/04/06 13:02:53;;;;;;;0.10;0.10;;;;;;;;;;5065879;28;20250;-72
2021/04/06 13:05:21;;;;;;;0.20;0.20;;;;;;;;;;5056989;28;20219;-72
2021/04/06 13:07:48;;;;;;;0.10;0.10;;;;;;;;;;5058383;28;20306;-72
2021/04/06 13:10:17;;;;;;;0.10;0.10;;;;;;;;;;5066211;28;20330;-72
2021/04/06 13:12:44;;;;;;;0.10;0.10;;;;;;;;;;5066828;28;20220;-73
2021/04/06 13:15:11;;;;;;;0.10;0.10;;;;;;;;;;5066543;28;20551;-71
2021/04/06 13:17:38;;;;;;;0.10;0.10;;;;;;;;;;5059982;28;20212;-74
2021/04/06 13:20:05;;;;;;;0.10;0.10;;;;;;;;;;5052865;28;20233;-72
2021/04/06 13:22:35;;;;;;;0.10;0.10;;;;;;;;;;5066465;28;20558;-72
2021/04/06 13:25:04;;;;;;;0.10;0.10;;;;;;;;;;5052429;28;20201;-71
2021/04/06 13:27:33;;;;;;;0.17;0.17;;;;;;;;;;5056528;28;20226;-71
2021/04/06 13:30:02;;;;;;;0.10;0.10;;;;;;;;;;5059355;28;20239;-71
2021/04/06 13:32:30;;;;;;;0.10;0.10;;;;;;;;;;5063649;28;20207;-72
2021/04/06 13:34:58;;;;;;;0.10;0.10;;;;;;;;;;5065080;28;20231;-73
2021/04/06 13:37:26;;;;;;;0.20;0.20;;;;;;;;;;5063552;28;20196;-72
2021/04/06 13:39:55;;;;;;;0.20;0.20;;;;;;;;;;5062597;28;20213;-72
2021/04/06 13:42:23;;;;;;;0.20;0.20;;;;;;;;;;5065521;28;20210;-73
2021/04/06 13:44:50;;;;;;;0.10;0.10;;;;;;;;;;5055242;28;20406;-74
2021/04/06 13:47:17;;;;;;;2.17;2.00;;;;;;;;;;5064725;28;20448;-72
2021/04/06 13:49:44;;;;;;;0.20;0.20;;;;;;;;;;5064704;28;20218;-72
2021/04/06 13:52:10;;;;;;;0.20;0.20;;;;;;;;;;5063190;28;20223;-73
2021/04/06 13:54:37;;;;;;;0.10;0.10;;;;;;;;;;5064734;28;20290;-72
2021/04/06 13:57:05;;;;;;;0.20;0.20;;;;;;;;;;5066086;28;20214;-71
2021/04/06 13:59:32;;;;;;;0.20;0.20;;;;;;;;;;5066425;28;20498;-72
2021/04/06 14:01:58;;;;;;;0.20;0.20;;;;;;;;;;5065826;28;20204;-72
2021/04/06 14:04:25;;;;;;;0.10;0.10;;;;;;;;;;5065644;28;20203;-72
2021/04/06 14:06:51;;;;;;;0.10;0.10;;;;;;;;;;5064530;28;20253;-72
2021/04/06 14:09:18;;;;;;;6.70;2.43;;;;;;;;;;5058380;28;20215;-73
2021/04/06 14:11:45;;;;;;;0.20;0.20;;;;;;;;;;5065345;28;20273;-73
2021/04/06 14:14:23;;;;;;;0.20;0.20;;;;;;;;;;5054189;28;20204;-72
2021/04/06 14:16:49;;;;;;;0.10;0.10;;;;;;;;;;5065713;28;20223;-73
2021/04/06 14:19:16;;;;;;;0.20;0.20;;;;;;;;;;5062339;28;20212;-73
2021/04/06 14:21:43;;;;;;;0.10;0.10;;;;;;;;;;5059629;28;20274;-72
2021/04/06 14:24:10;;;;;;;0.10;0.10;;;;;;;;;;5058255;28;20214;-72
2021/04/06 14:26:37;;;;;;;0.20;0.20;;;;;;;;;;5062891;28;20254;-73
2021/04/06 14:29:04;;;;;;;0.20;0.20;;;;;;;;;;5066770;28;20209;-71
2021/04/06 14:31:32;;;;;;;0.20;0.20;;;;;;;;;;5066243;28;20451;-72
2021/04/06 14:34:01;;;;;;;0.20;0.20;;;;;;;;;;5066244;28;20273;-71
2021/04/06 14:36:28;;;;;;;0.20;0.20;;;;;;;;;;5058962;28;20475;-72
2021/04/06 14:38:55;;;;;;;0.20;0.20;;;;;;;;;;5064135;28;20197;-73
2021/04/06 14:41:22;;;;;;;0.20;0.20;;;;;;;;;;5066145;28;20206;-72
2021/04/06 14:43:49;;;;;;;0.20;0.20;;;;;;;;;;5065866;28;20360;-72
2021/04/06 14:46:17;;;;;;;0.20;0.20;;;;;;;;;;5060660;28;20361;-71
2021/04/06 14:48:46;;;;;;;0.20;0.20;;;;;;;;;;5063033;28;20394;-72